Vergennes, Illinois
Current Conditions -  °F | °C
As of 6:52 PM on Monday 24 Nov 2014 (Local Time) from KMDH Reporting Station
Broken Clouds Broken Clouds  
Wind Chill: 43°   Ceiling: 7500
Heat Index: 43°   Visibility: 10mi
Dew Point: 30°   Wind: 0mph
Humidity: 60%   Direction: NA
Pressure: 29.93"   Gusts: NA
Location:  37.9°N, 89.34°W
Report Text: KMDH 250052Z AUTO 00000KT 10SM BKN075 06/M01 A2993 RMK AO2 SLP138 T00611011
Loading
Personal Weather Stations






























Interactive Weather Map New forecast layout! Learn more

10-Day Weather Forecast

Advertisements
Track Severe Weather on mobile